createdAt,value
2018-04-10T00:01:34.376Z,31.10
2018-04-10T00:04:02.612Z,31.97
2018-04-10T00:06:30.100Z,29.73
2018-04-10T00:08:58.356Z,29.83
2018-04-10T00:11:25.820Z,29.97
2018-04-10T00:13:53.304Z,30.83
2018-04-10T00:16:21.540Z,32.33
2018-04-10T00:21:40.312Z,31.17
2018-04-10T00:24:07.804Z,29.27
2018-04-10T00:26:36.048Z,30.50
2018-04-10T00:29:03.516Z,28.57
2018-04-10T00:31:31.773Z,29.57
2018-04-10T00:33:59.248Z,29.27
2018-04-10T00:36:27.504Z,27.10
2018-04-10T00:38:54.976Z,29.00
2018-04-10T00:41:23.256Z,27.07
2018-04-10T00:43:51.491Z,27.37
2018-04-10T00:46:18.960Z,27.53
2018-04-10T00:48:46.444Z,27.87
2018-04-10T00:51:14.680Z,27.03
2018-04-10T00:53:42.180Z,26.50
2018-04-10T00:56:10.414Z,26.67
2018-04-10T00:58:37.900Z,26.20
2018-04-10T01:01:06.383Z,26.97
2018-04-10T01:03:34.620Z,25.60
2018-04-10T01:06:02.145Z,25.23
2018-04-10T01:08:29.664Z,25.87
2018-04-10T01:10:57.157Z,25.63
2018-04-10T01:13:24.636Z,26.53
2018-04-10T01:15:52.441Z,25.33
2018-04-10T01:18:19.911Z,26.53
2018-04-10T01:20:48.147Z,26.57
2018-04-10T01:23:15.628Z,25.27
2018-04-10T01:25:43.868Z,25.00
2018-04-10T01:28:11.356Z,25.87
2018-04-10T01:30:39.601Z,25.03
2018-04-10T01:33:07.093Z,26.27
2018-04-10T01:35:35.328Z,23.97
2018-04-10T01:38:02.802Z,24.87
2018-04-10T01:40:30.289Z,22.97
2018-04-10T01:42:58.524Z,21.60
2018-04-10T01:45:26.052Z,21.53
2018-04-10T01:47:53.526Z,22.13
2018-04-10T01:50:21.320Z,20.43
2018-04-10T01:52:48.788Z,20.97
2018-04-10T01:55:17.023Z,20.47
2018-04-10T01:57:44.592Z,19.83
2018-04-10T02:00:12.105Z,20.53
2018-04-10T02:02:39.578Z,20.73
2018-04-10T02:05:07.064Z,20.20
2018-04-10T02:07:34.536Z,19.13
2018-04-10T02:10:02.776Z,19.90
2018-04-10T02:12:30.261Z,19.97
2018-04-10T02:14:57.736Z,20.43
2018-04-10T02:17:26.042Z,19.57
2018-04-10T02:19:53.594Z,20.33
2018-04-10T02:22:21.092Z,19.47
2018-04-10T02:24:48.565Z,19.57
2018-04-10T02:27:16.814Z,19.93
2018-04-10T02:29:44.300Z,20.87
2018-04-10T02:32:11.776Z,19.97
2018-04-10T02:34:40.024Z,20.47
2018-04-10T02:37:07.496Z,19.50
2018-04-10T02:39:36.065Z,19.10
2018-04-10T02:42:03.536Z,20.47
2018-04-10T02:44:31.780Z,20.77
2018-04-10T02:46:59.269Z,20.27
2018-04-10T02:49:27.507Z,21.07
2018-04-10T02:51:55.005Z,21.43
2018-04-10T02:54:22.488Z,20.33
2018-04-10T02:56:49.992Z,20.83
2018-04-10T02:59:17.463Z,20.53
2018-04-10T03:01:45.696Z,20.87
2018-04-10T03:04:13.184Z,20.07
2018-04-10T03:06:41.420Z,18.97
2018-04-10T03:09:09.068Z,20.37
2018-04-10T03:11:36.568Z,21.17
2018-04-10T03:14:04.828Z,20.17
2018-04-10T03:16:32.301Z,20.03
2018-04-10T03:19:00.535Z,19.00
2018-04-10T03:21:28.020Z,20.17
2018-04-10T03:23:55.496Z,19.50
2018-04-10T03:26:23.750Z,19.70
2018-04-10T03:28:51.233Z,18.33
2018-04-10T03:31:19.485Z,17.20
2018-04-10T03:33:46.988Z,17.60
2018-04-10T03:36:14.460Z,16.90
2018-04-10T03:38:41.973Z,17.50
2018-04-10T03:41:10.204Z,16.57
2018-04-10T03:43:37.687Z,15.47
2018-04-10T03:46:05.160Z,14.90
2018-04-10T03:48:33.742Z,14.00
2018-04-10T03:51:01.976Z,14.70
2018-04-10T03:53:29.448Z,13.47
2018-04-10T03:55:56.932Z,13.10
2018-04-10T03:58:25.167Z,13.53
2018-04-10T04:00:52.656Z,11.93
2018-04-10T04:03:20.894Z,11.73
2018-04-10T04:05:48.384Z,10.77
2018-04-10T04:08:16.629Z,10.53
2018-04-10T04:10:44.104Z,10.57
2018-04-10T04:13:11.588Z,10.90
2018-04-10T04:15:39.160Z,9.97
2018-04-10T04:18:06.665Z,11.27
2018-04-10T04:20:46.945Z,10.77
2018-04-10T04:23:15.352Z,9.37
2018-04-10T04:25:42.851Z,9.33
2018-04-10T04:28:10.332Z,9.90
2018-04-10T04:30:38.560Z,9.70
2018-04-10T04:33:06.051Z,9.10
2018-04-10T04:35:33.521Z,9.30
2018-04-10T04:38:00.992Z,9.10
2018-04-10T04:40:29.299Z,9.10
2018-04-10T04:42:56.766Z,8.37
2018-04-10T04:45:24.280Z,8.23
2018-04-10T04:47:52.512Z,8.40
2018-04-10T04:50:20.304Z,8.93
2018-04-10T04:52:47.770Z,7.43
2018-04-10T04:55:16.004Z,7.00
2018-04-10T04:57:43.521Z,7.67
2018-04-10T05:00:10.997Z,7.10
2018-04-10T05:02:38.480Z,7.53
2018-04-10T05:05:05.955Z,7.57
2018-04-10T05:07:33.464Z,7.70
2018-04-10T05:10:00.932Z,7.13
2018-04-10T05:12:28.403Z,7.40
2018-04-10T05:14:55.884Z,8.13
2018-04-10T05:17:23.348Z,8.17
2018-04-10T05:19:51.604Z,8.23
2018-04-10T05:22:19.076Z,8.93
2018-04-10T05:24:47.344Z,7.80
2018-04-10T05:27:14.812Z,9.27
2018-04-10T05:29:43.049Z,9.57
2018-04-10T05:32:10.528Z,9.10
2018-04-10T05:34:38.013Z,8.43
2018-04-10T05:37:05.520Z,8.77
2018-04-10T05:39:32.992Z,8.20
2018-04-10T05:42:00.480Z,9.03
2018-04-10T05:44:27.949Z,8.30
2018-04-10T05:46:55.416Z,7.77
2018-04-10T05:49:22.908Z,6.93
2018-04-10T05:51:50.375Z,7.40
2018-04-10T05:54:18.636Z,7.67
2018-04-10T05:56:46.103Z,7.17
2018-04-10T05:59:13.596Z,6.63
2018-04-10T06:01:41.064Z,6.53
2018-04-10T06:04:08.540Z,6.20
2018-04-10T06:06:36.024Z,5.90
2018-04-10T06:09:05.312Z,5.03
2018-04-10T06:11:32.796Z,3.90
2018-04-10T06:14:01.025Z,4.23
2018-04-10T06:16:28.508Z,3.73
2018-04-10T06:18:55.976Z,3.93
2018-04-10T06:21:24.216Z,3.50
2018-04-10T06:23:51.697Z,3.53
2018-04-10T06:26:19.160Z,3.80
2018-04-10T06:28:46.644Z,3.67
2018-04-10T06:31:14.108Z,3.40
2018-04-10T06:33:41.572Z,3.23
2018-04-10T06:36:09.054Z,3.63
2018-04-10T06:38:36.521Z,3.07
2018-04-10T06:41:04.002Z,2.77
2018-04-10T06:43:31.478Z,3.10
2018-04-10T06:45:59.728Z,2.87
2018-04-10T06:48:27.204Z,2.63
2018-04-10T06:50:54.784Z,2.77
2018-04-10T06:53:22.279Z,2.60
2018-04-10T06:55:49.748Z,2.47
2018-04-10T06:58:17.252Z,2.90
2018-04-10T07:00:44.712Z,2.67
2018-04-10T07:03:12.524Z,2.60
2018-04-10T07:05:39.988Z,2.57
2018-04-10T07:08:07.462Z,2.40
2018-04-10T07:10:35.753Z,3.10
2018-04-10T07:13:03.948Z,2.33
2018-04-10T07:15:31.457Z,2.30
2018-04-10T07:17:59.688Z,2.43
2018-04-10T07:20:27.993Z,2.30
2018-04-10T07:22:55.456Z,2.03
2018-04-10T07:25:23.688Z,2.17
2018-04-10T07:27:51.176Z,2.17
2018-04-10T07:30:18.644Z,2.63
2018-04-10T07:32:46.967Z,2.30
2018-04-10T07:35:14.438Z,2.30
2018-04-10T07:37:41.920Z,2.23
2018-04-10T07:40:10.171Z,2.53
2018-04-10T07:42:37.676Z,2.70
2018-04-10T07:45:05.973Z,2.43
2018-04-10T07:47:33.432Z,2.17
2018-04-10T07:50:00.914Z,2.40
2018-04-10T07:52:28.376Z,2.90
2018-04-10T07:54:55.856Z,2.30
2018-04-10T07:57:24.092Z,2.53
2018-04-10T07:59:51.600Z,2.47
2018-04-10T08:02:19.853Z,2.30
2018-04-10T08:04:47.390Z,2.10
2018-04-10T08:07:14.816Z,2.37
2018-04-10T08:09:42.314Z,2.30
2018-04-10T08:12:09.789Z,2.17
2018-04-10T08:14:38.045Z,2.70
2018-04-10T08:17:05.508Z,2.60
2018-04-10T08:19:32.988Z,2.67
2018-04-10T08:22:01.216Z,2.67
2018-04-10T08:24:28.701Z,3.10
2018-04-10T08:26:56.165Z,4.00
2018-04-10T08:29:24.404Z,3.80
2018-04-10T08:31:51.880Z,4.17
2018-04-10T08:34:19.348Z,8.03
2018-04-10T08:36:47.604Z,9.40
2018-04-10T08:39:15.068Z,11.87
2018-04-10T08:41:42.560Z,12.23
2018-04-10T08:44:10.028Z,11.77
2018-04-10T08:46:37.548Z,13.40
2018-04-10T08:49:05.784Z,13.17
2018-04-10T08:51:33.268Z,12.80
2018-04-10T08:54:01.504Z,12.40
2018-04-10T08:56:28.988Z,12.43
2018-04-10T08:58:56.456Z,13.30
2018-04-10T09:01:24.708Z,13.37
2018-04-10T09:03:52.180Z,13.67
2018-04-10T09:06:19.672Z,13.47
2018-04-10T09:08:47.148Z,13.43
2018-04-10T09:11:14.620Z,11.47
2018-04-10T09:13:42.112Z,12.80
2018-04-10T09:16:10.361Z,12.90
2018-04-10T09:18:37.848Z,14.17
2018-04-10T09:21:06.089Z,13.00
2018-04-10T09:23:33.581Z,13.87
2018-04-10T09:26:01.886Z,13.90
2018-04-10T09:28:29.369Z,12.87
2018-04-10T09:30:56.902Z,13.27
2018-04-10T09:33:24.388Z,12.23
2018-04-10T09:35:51.976Z,13.10
2018-04-10T09:38:20.236Z,12.10
2018-04-10T09:40:47.712Z,10.83
2018-04-10T09:43:15.965Z,12.77
2018-04-10T09:45:43.440Z,13.30
2018-04-10T09:48:11.695Z,11.53
2018-04-10T09:50:39.172Z,12.53
2018-04-10T09:53:07.416Z,12.13
2018-04-10T09:55:34.904Z,11.53
2018-04-10T09:58:03.145Z,12.43
2018-04-10T10:00:36.320Z,11.17
2018-04-10T10:03:03.794Z,12.13
2018-04-10T10:05:31.280Z,11.07
2018-04-10T10:07:59.520Z,12.30
2018-04-10T10:10:27.008Z,11.20
2018-04-10T10:12:55.283Z,10.50
2018-04-10T10:15:22.744Z,9.40
2018-04-10T10:17:50.978Z,9.80
2018-04-10T10:20:18.460Z,10.43
2018-04-10T10:22:45.937Z,9.87
2018-04-10T10:25:14.192Z,9.47
2018-04-10T10:27:41.655Z,10.40
2018-04-10T10:30:09.905Z,9.87
2018-04-10T10:32:37.373Z,8.70
2018-04-10T10:35:04.876Z,8.60
2018-04-10T10:37:32.344Z,8.17
2018-04-10T10:39:59.813Z,8.23
2018-04-10T10:42:27.300Z,8.57
2018-04-10T10:44:54.764Z,6.43
2018-04-10T10:47:23.034Z,6.67
2018-04-10T10:49:50.500Z,4.47
2018-04-10T10:52:17.976Z,5.30
2018-04-10T10:54:45.440Z,6.13
2018-04-10T10:57:12.920Z,5.20
2018-04-10T10:59:40.396Z,5.07
2018-04-10T11:02:07.880Z,5.10
2018-04-10T11:04:36.112Z,4.33
2018-04-10T11:07:03.604Z,4.20
2018-04-10T11:09:31.907Z,4.07
2018-04-10T11:12:00.139Z,3.80
2018-04-10T11:14:28.368Z,3.60
2018-04-10T11:16:55.856Z,4.00
2018-04-10T11:19:23.316Z,3.67
2018-04-10T11:21:50.786Z,3.70
2018-04-10T11:24:18.266Z,3.63
2018-04-10T11:26:46.500Z,4.30
2018-04-10T11:29:13.986Z,4.70
2018-04-10T11:31:42.220Z,4.23
2018-04-10T11:34:09.704Z,4.50
2018-04-10T11:36:37.168Z,4.60
2018-04-10T11:39:06.168Z,3.53
2018-04-10T11:41:33.612Z,4.37
2018-04-10T11:44:01.113Z,4.87
2018-04-10T11:46:28.580Z,3.90
2018-04-10T11:48:56.060Z,4.10
2018-04-10T11:51:23.534Z,3.90
2018-04-10T11:53:51.012Z,3.90
2018-04-10T11:56:19.255Z,4.37
2018-04-10T11:58:46.740Z,4.23
2018-04-10T12:01:14.972Z,4.80
2018-04-10T12:03:42.760Z,4.20
2018-04-10T12:06:11.078Z,4.10
2018-04-10T12:08:38.548Z,4.47
2018-04-10T12:11:06.036Z,4.40
2018-04-10T12:13:33.504Z,4.40
2018-04-10T12:16:01.047Z,4.77
2018-04-10T12:18:28.485Z,4.30
2018-04-10T12:20:55.964Z,3.60
2018-04-10T12:23:23.432Z,3.13
2018-04-10T12:25:51.028Z,3.33
2018-04-10T12:28:18.528Z,4.13
2018-04-10T12:30:46.001Z,4.40
2018-04-10T12:33:14.232Z,3.67
2018-04-10T12:35:41.716Z,3.57
2018-04-10T12:38:09.176Z,3.70
2018-04-10T12:40:36.665Z,4.17
2018-04-10T12:43:04.915Z,3.60
2018-04-10T12:45:32.372Z,3.97
2018-04-10T12:48:00.624Z,3.50
2018-04-10T12:50:28.084Z,4.03
2018-04-10T12:52:55.568Z,4.40
2018-04-10T12:55:23.804Z,3.67
2018-04-10T12:57:51.286Z,3.97
2018-04-10T13:00:18.744Z,3.70
2018-04-10T13:02:46.240Z,3.27
2018-04-10T13:05:13.702Z,3.70
2018-04-10T13:07:41.257Z,3.73
2018-04-10T13:10:08.733Z,3.63
2018-04-10T13:12:36.271Z,3.60
2018-04-10T13:15:03.737Z,3.33
2018-04-10T13:17:31.280Z,3.97
2018-04-10T13:19:58.740Z,4.10
2018-04-10T13:22:26.293Z,3.77
2018-04-10T13:24:53.756Z,4.63
2018-04-10T13:27:21.224Z,3.97
2018-04-10T13:29:48.705Z,4.33
2018-04-10T13:32:16.175Z,4.67
2018-04-10T13:34:43.655Z,3.97
2018-04-10T13:37:11.230Z,4.73
2018-04-10T13:39:38.708Z,4.30
2018-04-10T13:42:06.175Z,5.20
2018-04-10T13:44:33.682Z,4.57
2018-04-10T13:47:01.165Z,4.60
2018-04-10T13:49:28.652Z,4.77
2018-04-10T13:51:56.117Z,4.23
2018-04-10T13:54:23.649Z,4.23
2018-04-10T13:56:51.088Z,4.50
2018-04-10T13:59:18.563Z,4.37
2018-04-10T14:01:46.028Z,5.10
2018-04-10T14:04:13.512Z,5.00
2018-04-10T14:06:41.756Z,5.10
2018-04-10T14:09:09.220Z,5.17
2018-04-10T14:11:36.705Z,5.13
2018-04-10T14:14:04.940Z,5.53
2018-04-10T14:16:32.425Z,4.80
2018-04-10T14:18:59.888Z,5.13
2018-04-10T14:21:28.201Z,5.17
2018-04-10T14:23:55.686Z,5.33
2018-04-10T14:26:23.174Z,5.43
2018-04-10T14:28:51.414Z,5.07
2018-04-10T14:31:18.904Z,5.07
2018-04-10T14:33:47.132Z,4.33
2018-04-10T14:36:14.624Z,4.30
2018-04-10T14:38:42.089Z,4.53
2018-04-10T14:41:10.348Z,4.37
2018-04-10T14:43:37.813Z,4.17
2018-04-10T14:46:05.317Z,3.60
2018-04-10T14:48:32.797Z,3.50
2018-04-10T14:51:00.296Z,3.33
2018-04-10T14:53:28.575Z,3.10
2018-04-10T14:55:56.822Z,3.00
2018-04-10T14:58:24.325Z,2.77
2018-04-10T15:00:51.818Z,2.50
2018-04-10T15:03:19.296Z,2.03
2018-04-10T15:05:46.842Z,2.27
2018-04-10T15:08:14.357Z,2.10
2018-04-10T15:10:41.826Z,2.33
2018-04-10T15:13:09.308Z,2.20
2018-04-10T15:15:36.769Z,2.30
2018-04-10T15:18:04.277Z,2.57
2018-04-10T15:20:31.746Z,3.10
2018-04-10T15:22:59.228Z,2.10
2018-04-10T15:25:26.711Z,2.07
2018-04-10T15:27:54.208Z,2.53
2018-04-10T15:30:21.680Z,2.03
2018-04-10T15:32:49.140Z,2.23
2018-04-10T15:35:16.621Z,2.13
2018-04-10T15:37:44.154Z,2.60
2018-04-10T15:40:11.625Z,2.53
2018-04-10T15:42:39.144Z,2.03
2018-04-10T15:45:06.624Z,2.10
2018-04-10T15:47:34.157Z,1.87
2018-04-10T15:50:01.718Z,2.50
2018-04-10T15:52:29.188Z,2.27
2018-04-10T15:54:56.684Z,2.33
2018-04-10T15:57:24.149Z,2.07
2018-04-10T15:59:52.396Z,2.53
2018-04-10T16:02:19.898Z,3.40
2018-04-10T16:04:47.407Z,2.20
2018-04-10T16:07:14.872Z,2.80
2018-04-10T16:09:42.403Z,2.70
2018-04-10T16:12:09.853Z,3.30
2018-04-10T16:14:37.329Z,2.73
2018-04-10T16:17:04.812Z,3.30
2018-04-10T16:19:32.313Z,2.87
2018-04-10T16:21:59.789Z,3.17
2018-04-10T16:24:27.254Z,3.10
2018-04-10T16:26:54.736Z,3.53
2018-04-10T16:29:22.208Z,3.70
2018-04-10T16:31:50.452Z,3.23
2018-04-10T16:34:17.916Z,3.50
2018-04-10T16:36:45.400Z,3.00
2018-04-10T16:39:13.626Z,3.50
2018-04-10T16:41:41.114Z,3.67
2018-04-10T16:44:09.351Z,3.50
2018-04-10T16:46:36.832Z,3.43
2018-04-10T16:49:04.300Z,3.37
2018-04-10T16:51:31.806Z,3.37
2018-04-10T16:53:59.275Z,3.10
2018-04-10T16:56:26.740Z,2.87
2018-04-10T16:58:54.229Z,3.30
2018-04-10T17:01:22.468Z,2.63
2018-04-10T17:03:49.960Z,2.60
2018-04-10T17:06:18.214Z,2.80
2018-04-10T17:08:46.472Z,2.70
2018-04-10T17:11:13.936Z,2.53
2018-04-10T17:13:41.412Z,2.57
2018-04-10T17:16:09.644Z,2.93
2018-04-10T17:18:37.120Z,2.70
2018-04-10T17:21:04.596Z,3.57
2018-04-10T17:23:32.909Z,4.73
2018-04-10T17:26:00.380Z,6.63
2018-04-10T17:28:27.882Z,6.30
2018-04-10T17:30:55.344Z,7.43
2018-04-10T17:33:23.592Z,7.83
2018-04-10T17:35:51.068Z,7.63
2018-04-10T17:38:19.332Z,8.77
2018-04-10T17:40:46.812Z,6.40
2018-04-10T17:43:15.056Z,7.00
2018-04-10T17:45:42.537Z,7.10
2018-04-10T17:48:10.770Z,8.30
2018-04-10T17:50:38.271Z,9.00
2018-04-10T17:53:06.509Z,8.77
2018-04-10T17:55:33.993Z,7.53
2018-04-10T17:58:01.456Z,9.07
2018-04-10T18:00:29.063Z,8.33
2018-04-10T18:02:56.570Z,9.00
2018-04-10T18:05:24.069Z,9.60
2018-04-10T18:07:51.539Z,9.43
2018-04-10T18:10:19.027Z,9.63
2018-04-10T18:12:47.277Z,10.27
2018-04-10T18:15:14.766Z,10.23
2018-04-10T18:17:43.012Z,10.60
2018-04-10T18:20:10.480Z,9.33
2018-04-10T18:22:37.972Z,10.60
2018-04-10T18:25:05.448Z,11.10
2018-04-10T18:27:32.928Z,9.97
2018-04-10T18:30:00.397Z,11.40
2018-04-10T18:32:27.888Z,10.77
2018-04-10T18:34:56.124Z,11.33
2018-04-10T18:37:23.608Z,10.80
2018-04-10T18:39:51.075Z,10.97
2018-04-10T18:42:19.327Z,12.13
2018-04-10T18:44:46.796Z,12.40
2018-04-10T18:47:14.301Z,10.93
2018-04-10T18:49:41.804Z,9.47
2018-04-10T18:52:09.292Z,10.70
2018-04-10T18:54:36.768Z,10.93
2018-04-10T18:57:04.249Z,10.57
2018-04-10T18:59:31.732Z,11.37
2018-04-10T19:01:59.233Z,10.53
2018-04-10T19:04:26.792Z,11.80
2018-04-10T19:06:54.267Z,10.67
2018-04-10T19:09:21.752Z,11.30
2018-04-10T19:11:49.263Z,10.37
2018-04-10T19:14:16.744Z,9.67
2018-04-10T19:16:44.208Z,9.40
2018-04-10T19:19:11.720Z,8.67
2018-04-10T19:21:39.192Z,8.57
2018-04-10T19:24:06.691Z,8.27
2018-04-10T19:26:34.160Z,8.27
2018-04-10T19:29:02.412Z,7.30
2018-04-10T19:31:29.922Z,7.60
2018-04-10T19:33:58.563Z,7.20
2018-04-10T19:36:26.264Z,8.00
2018-04-10T19:38:53.858Z,7.50
2018-04-10T19:41:21.322Z,7.57
2018-04-10T19:43:49.747Z,7.63
2018-04-10T19:46:17.997Z,8.50
2018-04-10T19:48:45.468Z,7.80
2018-04-10T19:51:12.948Z,7.37
2018-04-10T19:53:40.449Z,7.10
2018-04-10T19:56:07.940Z,6.93
2018-04-10T19:58:35.410Z,6.50
2018-04-10T20:01:02.899Z,7.50
2018-04-10T20:03:30.366Z,7.00
2018-04-10T20:05:57.852Z,6.70
2018-04-10T20:08:26.105Z,7.83
2018-04-10T20:10:53.588Z,7.57
2018-04-10T20:13:21.824Z,7.37
2018-04-10T20:15:49.319Z,7.80
2018-04-10T20:18:16.788Z,7.47
2018-04-10T20:20:44.268Z,9.07
2018-04-10T20:23:11.757Z,7.93
2018-04-10T20:25:39.249Z,8.27
2018-04-10T20:28:07.504Z,9.10
2018-04-10T20:30:34.972Z,8.50
2018-04-10T20:33:03.232Z,7.43
2018-04-10T20:35:30.696Z,6.90
2018-04-10T20:37:58.951Z,7.37
2018-04-10T20:40:26.413Z,5.93
2018-04-10T20:42:53.891Z,4.30
2018-04-10T20:45:22.195Z,3.00
2018-04-10T20:47:49.685Z,2.50
2018-04-10T20:50:17.148Z,1.87
2018-04-10T20:52:44.642Z,2.00
2018-04-10T20:55:12.876Z,1.67
2018-04-10T20:57:40.352Z,1.53
2018-04-10T21:00:07.822Z,1.40
2018-04-10T21:02:36.064Z,1.50
2018-04-10T21:05:05.045Z,1.30
2018-04-10T21:07:32.537Z,1.23
2018-04-10T21:10:00.769Z,1.20
2018-04-10T21:12:28.232Z,1.50
2018-04-10T21:14:55.720Z,1.10
2018-04-10T21:17:23.180Z,1.20
2018-04-10T21:19:50.671Z,1.17
2018-04-10T21:22:18.136Z,1.23
2018-04-10T21:24:45.616Z,1.50
2018-04-10T21:27:13.092Z,1.50
2018-04-10T21:29:40.573Z,1.40
2018-04-10T21:32:08.077Z,1.40
2018-04-10T21:34:35.552Z,1.47
2018-04-10T21:37:04.520Z,1.53
2018-04-10T21:39:32.005Z,1.23
2018-04-10T21:41:59.484Z,1.50
2018-04-10T21:44:27.727Z,1.20
2018-04-10T21:46:55.196Z,1.30
2018-04-10T21:49:22.692Z,1.40
2018-04-10T21:51:50.157Z,1.60
2018-04-10T21:54:17.624Z,1.40
2018-04-10T21:56:45.101Z,1.47
2018-04-10T21:59:12.560Z,1.70
2018-04-10T22:01:40.040Z,1.70
2018-04-10T22:04:08.278Z,2.00
2018-04-10T22:06:35.760Z,2.17
2018-04-10T22:09:03.224Z,2.80
2018-04-10T22:11:31.480Z,2.90
2018-04-10T22:13:58.949Z,2.03
2018-04-10T22:16:26.428Z,2.60
2018-04-10T22:18:54.660Z,2.80
2018-04-10T22:21:22.136Z,2.20
2018-04-10T22:23:49.601Z,2.03
2018-04-10T22:26:17.853Z,1.97
2018-04-10T22:28:46.081Z,1.80
2018-04-10T22:31:13.564Z,2.10
2018-04-10T22:33:41.066Z,1.60
2018-04-10T22:36:08.529Z,1.60
2018-04-10T22:38:36.076Z,1.43
2018-04-10T22:41:03.540Z,1.60
2018-04-10T22:43:31.016Z,2.17
2018-04-10T22:45:58.484Z,1.67
2018-04-10T22:48:25.968Z,1.63
2018-04-10T22:50:54.196Z,1.80
2018-04-10T22:53:21.689Z,1.37
2018-04-10T22:55:49.152Z,1.50
2018-04-10T22:58:17.396Z,1.60
2018-04-10T23:00:45.839Z,1.70
2018-04-10T23:03:13.329Z,1.97
2018-04-10T23:05:40.800Z,1.60
2018-04-10T23:08:08.288Z,1.37
2018-04-10T23:10:36.516Z,1.60
2018-04-10T23:13:04.321Z,2.20
2018-04-10T23:15:32.573Z,2.20
2018-04-10T23:18:00.044Z,2.00
2018-04-10T23:20:27.542Z,3.20
2018-04-10T23:22:55.780Z,2.07
2018-04-10T23:25:24.773Z,2.23
2018-04-10T23:27:52.236Z,1.90
2018-04-10T23:30:19.721Z,1.90
2018-04-10T23:32:47.197Z,2.17
2018-04-10T23:35:14.677Z,2.17
2018-04-10T23:37:42.144Z,2.20
2018-04-10T23:40:09.628Z,2.50
2018-04-10T23:42:37.092Z,2.80
2018-04-10T23:45:04.572Z,2.33
2018-04-10T23:47:32.035Z,2.17
2018-04-10T23:49:59.516Z,2.30
2018-04-10T23:52:26.981Z,2.20
2018-04-10T23:54:54.778Z,2.50
2018-04-10T23:57:22.237Z,2.40
2018-04-10T23:59:50.493Z,2.13
